Time;durP1;ratioP1;P1;durP2;ratioP2;P2;SDS_P1;SDS_P2;PMS_P1;PMS_P2;Temp;Humidity;BMP_temperature;BMP_pressure;BME280_temperature;BME280_humidity;BME280_pressure;Samples;Min_cycle;Max_cycle;Signal;HPM_P1;HPM_P2
2022/01/11 00:01:41;;;;;;;133.10;86.10;;;;;;;-5.34;73.82;102068.48;109851;1262;21984;-82
2022/01/11 00:04:15;;;;;;;125.50;79.40;;;;;;;-5.38;73.76;102070.09;110150;1262;22041;-84
2022/01/11 00:06:48;;;;;;;135.40;82.20;;;;;;;-5.42;73.75;102069.80;110046;1262;23631;-84
2022/01/11 00:09:32;;;;;;;130.30;82.90;;;;;;;-5.44;73.80;102071.91;110288;1260;21982;-84
2022/01/11 00:12:06;;;;;;;131.40;81.50;;;;;;;-5.48;73.75;102074.02;110404;1260;21978;-82
2022/01/11 00:14:37;;;;;;;132.60;82.20;;;;;;;-5.51;73.81;102075.78;109755;1264;21976;-82
2022/01/11 00:17:07;;;;;;;129.90;83.70;;;;;;;-5.53;73.82;102079.60;110019;1262;22447;-83
2022/01/11 00:19:37;;;;;;;139.90;86.50;;;;;;;-5.55;73.88;102083.23;109823;1264;21972;-84
2022/01/11 00:22:15;;;;;;;145.40;87.00;;;;;;;-5.58;73.83;102081.21;109497;1270;21997;-82
2022/01/11 00:24:46;;;;;;;145.00;82.60;;;;;;;-5.61;73.82;102083.84;109644;1264;21996;-83
2022/01/11 00:27:18;;;;;;;131.30;84.70;;;;;;;-5.65;73.68;102085.09;109830;1265;21952;-84
2022/01/11 00:29:51;;;;;;;;;;;;;;;-5.68;73.83;102081.01;109703;1269;22133;-85
2022/01/11 00:32:38;;;;;;;138.30;83.20;;;;;;;-5.76;73.99;102080.27;110082;1264;21991;-85
2022/01/11 00:35:11;;;;;;;135.50;86.10;;;;;;;-5.78;74.07;102086.83;110046;1264;21992;-83
2022/01/11 00:37:47;;;;;;;138.80;87.10;;;;;;;-5.77;74.11;102089.89;109699;1270;23018;-84
2022/01/11 00:40:21;;;;;;;132.80;84.10;;;;;;;-5.76;74.07;102094.00;109890;1262;23181;-83
2022/01/11 00:42:52;;;;;;;137.70;87.20;;;;;;;-5.77;73.96;102098.47;109723;1268;22449;-83
2022/01/11 00:45:22;;;;;;;141.90;88.30;;;;;;;-5.79;73.84;102100.73;109770;1268;23685;-84
2022/01/11 00:47:55;;;;;;;137.20;89.30;;;;;;;-5.80;73.94;102103.14;109759;1264;21998;-84
2022/01/11 00:50:25;;;;;;;141.60;90.80;;;;;;;-5.82;73.98;102105.91;110271;1265;22475;-84
2022/01/11 00:52:57;;;;;;;133.20;84.90;;;;;;;-5.83;73.84;102108.67;109776;1265;22644;-83
2022/01/11 00:55:27;;;;;;;138.00;86.50;;;;;;;-5.85;73.80;102107.16;109572;1268;21977;-84
2022/01/11 00:58:21;;;;;;;140.40;86.20;;;;;;;-5.88;73.80;102109.60;109961;1270;22798;-84
2022/01/11 01:00:57;;;;;;;141.70;86.30;;;;;;;-5.92;73.77;102111.38;110208;1259;22832;-83
2022/01/11 01:03:31;;;;;;;136.30;85.50;;;;;;;-5.95;73.83;102113.83;110548;1260;22039;-84
2022/01/11 01:06:04;;;;;;;143.30;87.70;;;;;;;-5.97;73.80;102111.80;110504;1260;24303;-84
2022/01/11 01:08:37;;;;;;;138.40;87.90;;;;;;;-6.00;73.73;102115.09;109699;1265;22021;-84
2022/01/11 01:11:10;;;;;;;142.90;88.70;;;;;;;-6.02;73.80;102114.95;109888;1267;24047;-84
2022/01/11 01:13:48;;;;;;;157.20;93.70;;;;;;;-6.05;73.71;102113.28;110344;1259;22380;-84
2022/01/11 01:16:20;;;;;;;146.40;89.10;;;;;;;-6.08;73.65;102115.71;110597;1260;22029;-84
2022/01/11 01:19:15;;;;;;;155.30;91.80;;;;;;;-6.11;73.84;102115.39;110873;1260;21976;-84
2022/01/11 01:21:49;;;;;;;157.60;95.30;;;;;;;-6.12;73.84;102120.91;110061;1265;22018;-83
2022/01/11 01:24:23;;;;;;;158.00;96.70;;;;;;;-6.14;73.80;102126.77;110026;1267;22055;-84
2022/01/11 01:26:54;;;;;;;162.60;96.90;;;;;;;-6.19;73.66;102127.48;110196;1263;22513;-84
2022/01/11 01:29:26;;;;;;;;;;;;;;;-6.20;73.76;102129.05;110605;1259;22032;-84
2022/01/11 01:31:56;;;;;;;154.70;92.70;;;;;;;-6.25;73.82;102130.30;110302;1260;23724;-83
2022/01/11 01:34:26;;;;;;;158.90;95.40;;;;;;;-6.27;73.86;102130.17;110377;1260;23105;-83
2022/01/11 01:36:55;;;;;;;160.40;95.80;;;;;;;-6.28;73.79;102132.05;110118;1263;22022;-82
2022/01/11 01:39:29;;;;;;;161.50;93.80;;;;;;;-6.30;73.76;102133.44;110732;1256;21991;-83
2022/01/11 01:42:03;;;;;;;164.10;96.00;;;;;;;-6.30;73.75;102132.60;110566;1257;21999;-84
2022/01/11 01:44:34;;;;;;;153.40;93.70;;;;;;;-6.32;73.76;102131.59;110525;1259;23901;-85
2022/01/11 01:47:04;;;;;;;156.30;96.00;;;;;;;-6.33;73.84;102131.27;110239;1257;22134;-85
2022/01/11 01:49:39;;;;;;;163.70;98.10;;;;;;;-6.34;73.88;102129.55;110356;1257;21978;-84
2022/01/11 01:52:10;;;;;;;170.60;99.10;;;;;;;-6.34;73.87;102126.98;110399;1258;22497;-84
2022/01/11 01:54:43;;;;;;;159.70;97.90;;;;;;;-6.36;73.86;102127.86;110633;1258;22038;-83
2022/01/11 01:57:19;;;;;;;162.80;98.10;;;;;;;-6.38;73.82;102130.11;109978;1262;22826;-84
2022/01/11 01:59:54;;;;;;;156.40;96.00;;;;;;;-6.40;73.83;102135.61;110019;1257;23639;-84
2022/01/11 02:02:24;;;;;;;161.60;97.00;;;;;;;-6.42;73.87;102137.86;110376;1260;22079;-83
2022/01/11 02:05:07;;;;;;;161.00;93.40;;;;;;;-6.42;73.85;102141.98;110875;1258;21986;-86
2022/01/11 02:07:37;;;;;;;145.80;90.80;;;;;;;-6.43;73.80;102144.55;110691;1260;22102;-84
2022/01/11 02:10:09;;;;;;;149.10;92.50;;;;;;;-6.42;73.88;102147.65;110495;1258;23115;-84
2022/01/11 02:13:21;;;;;;;156.30;92.10;;;;;;;-6.43;73.86;102153.64;110720;1260;23043;-85
2022/01/11 02:15:52;;;;;;;;;;;;;;;-6.45;73.76;102155.71;111266;1254;21967;-85
2022/01/11 02:18:26;;;;;;;137.50;82.20;;;;;;;-6.51;73.81;102159.90;111455;1254;22044;-85
2022/01/11 02:21:27;;;;;;;153.70;91.60;;;;;;;-6.54;73.83;102161.64;111441;1254;22678;-86
2022/01/11 02:23:59;;;;;;;156.30;95.40;;;;;;;-6.56;73.89;102165.27;111538;1254;22007;-84
2022/01/11 02:26:34;;;;;;;170.30;97.00;;;;;;;-6.58;74.09;102162.69;110537;1259;21986;-83
2022/01/11 02:29:04;;;;;;;166.90;96.60;;;;;;;-6.57;74.21;102159.95;110331;1258;21990;-82
2022/01/11 02:31:43;;;;;;;162.80;96.60;;;;;;;-6.55;74.25;102163.54;109628;1265;22379;-82
2022/01/11 02:34:13;;;;;;;158.50;95.90;;;;;;;-6.54;74.13;102166.79;109336;1270;21968;-82
2022/01/11 02:36:58;;;;;;;162.20;94.20;;;;;;;-6.56;74.03;102164.05;109354;1267;23080;-84
2022/01/11 02:39:36;;;;;;;158.90;93.00;;;;;;;-6.56;74.01;102162.52;109298;1270;23692;-83
2022/01/11 02:42:37;;;;;;;148.40;89.90;;;;;;;-6.57;74.02;102163.04;108968;1274;22473;-83
2022/01/11 02:45:23;;;;;;;156.90;92.70;;;;;;;-6.57;74.06;102161.15;108902;1274;23698;-84
2022/01/11 02:47:53;;;;;;;148.70;89.50;;;;;;;-6.53;74.06;102160.93;108959;1276;22472;-84
2022/01/11 02:50:26;;;;;;;154.00;90.50;;;;;;;-6.50;74.25;102162.10;109431;1270;21991;-83
2022/01/11 02:52:59;;;;;;;145.50;94.80;;;;;;;-6.47;74.26;102162.95;109617;1267;22016;-84
2022/01/11 02:55:29;;;;;;;155.80;96.60;;;;;;;-6.44;74.18;102166.16;109932;1264;23614;-84
2022/01/11 02:57:59;;;;;;;150.20;91.00;;;;;;;-6.44;74.03;102162.56;109913;1263;23046;-84
2022/01/11 03:00:32;;;;;;;150.90;92.90;;;;;;;-6.46;73.95;102165.52;110166;1257;21986;-83
2022/01/11 03:03:17;;;;;;;156.10;92.00;;;;;;;-6.50;73.90;102163.31;110568;1254;23653;-84
2022/01/11 03:05:53;;;;;;;144.50;90.60;;;;;;;-6.56;73.84;102161.48;110423;1260;22081;-83
2022/01/11 03:08:42;;;;;;;144.60;86.90;;;;;;;-6.63;73.89;102162.58;109760;1266;22007;-83
2022/01/11 03:11:21;;;;;;;143.90;89.10;;;;;;;-6.69;73.80;102164.69;109847;1266;21998;-82
2022/01/11 03:13:57;;;;;;;150.40;91.50;;;;;;;-6.73;73.95;102168.33;109634;1268;23190;-83
2022/01/11 03:16:27;;;;;;;161.50;94.70;;;;;;;-6.73;73.94;102169.17;109468;1270;22000;-84
2022/01/11 03:18:58;;;;;;;161.70;96.40;;;;;;;-6.71;74.12;102170.17;109564;1267;22200;-83
2022/01/11 03:21:28;;;;;;;149.50;91.80;;;;;;;-6.69;74.12;102171.02;109666;1270;22056;-84
2022/01/11 03:24:01;;;;;;;150.90;90.70;;;;;;;-6.65;74.18;102172.02;109538;1270;21984;-84
2022/01/11 03:26:34;;;;;;;154.30;94.20;;;;;;;-6.61;74.30;102177.13;109941;1261;22085;-83
2022/01/11 03:29:07;;;;;;;151.10;92.80;;;;;;;-6.59;74.21;102176.60;110430;1260;22028;-82
2022/01/11 03:31:40;;;;;;;149.90;90.30;;;;;;;-6.58;74.08;102178.98;110199;1257;22856;-82
2022/01/11 03:34:17;;;;;;;159.30;95.80;;;;;;;-6.60;73.92;102176.27;109883;1257;22022;-83
2022/01/11 03:36:48;;;;;;;165.50;98.60;;;;;;;-6.61;73.81;102176.27;109968;1264;22289;-83
2022/01/11 03:39:21;;;;;;;153.30;97.80;;;;;;;-6.63;73.83;102176.97;109458;1270;22007;-82
2022/01/11 03:41:58;;;;;;;162.30;98.40;;;;;;;-6.63;73.81;102176.13;109541;1264;22100;-84
2022/01/11 03:44:37;;;;;;;162.10;95.60;;;;;;;-6.64;73.81;102179.38;109397;1270;22791;-84
2022/01/11 03:47:08;;;;;;;154.70;94.90;;;;;;;-6.65;73.78;102180.94;109400;1270;22059;-82
2022/01/11 03:49:37;;;;;;;157.70;96.10;;;;;;;-6.67;73.78;102187.80;109379;1270;23599;-83
2022/01/11 03:52:15;;;;;;;153.90;93.90;;;;;;;-6.69;73.81;102186.45;109049;1276;23724;-84
2022/01/11 03:57:34;;;;;;;170.60;95.90;;;;;;;-6.75;74.01;102187.52;109744;1264;22977;-84
2022/01/11 04:00:14;;;;;;;147.40;93.50;;;;;;;-6.76;74.28;102188.39;109684;1267;22054;-84
2022/01/11 04:02:52;;;;;;;146.90;91.70;;;;;;;-6.76;74.28;102193.02;110370;1262;21977;-83
2022/01/11 04:05:30;;;;;;;142.70;87.10;;;;;;;-6.75;74.38;102198.82;110587;1262;21997;-83
2022/01/11 04:08:02;;;;;;;141.00;87.50;;;;;;;-6.72;74.54;102199.83;110123;1263;21937;-83
2022/01/11 04:10:35;;;;;;;148.40;88.60;;;;;;;-6.69;74.40;102199.46;110454;1257;21976;-82
2022/01/11 04:13:08;;;;;;;151.10;90.40;;;;;;;-6.66;74.43;102198.76;110573;1257;22003;-83
2022/01/11 04:15:41;;;;;;;138.10;87.00;;;;;;;-6.63;74.45;102197.55;109689;1264;21980;-82
2022/01/11 04:18:13;;;;;;;129.00;83.20;;;;;;;-6.62;74.26;102200.27;109850;1261;23682;-83
2022/01/11 04:20:48;;;;;;;142.20;86.50;;;;;;;-6.61;74.26;102200.59;110158;1260;22541;-82
2022/01/11 04:23:23;;;;;;;147.20;87.20;;;;;;;-6.59;74.36;102205.38;110040;1263;22052;-81
2022/01/11 04:25:53;;;;;;;127.90;85.80;;;;;;;-6.59;74.25;102210.70;109663;1264;21979;-83
2022/01/11 04:28:25;;;;;;;145.00;85.10;;;;;;;-6.61;74.17;102212.60;109664;1264;22043;-83
2022/01/11 04:31:00;;;;;;;130.90;83.10;;;;;;;-6.62;74.10;102220.48;109360;1270;23700;-84
2022/01/11 04:33:32;;;;;;;144.70;86.60;;;;;;;-6.63;74.17;102219.64;109331;1263;21978;-81
2022/01/11 04:36:03;;;;;;;137.80;82.80;;;;;;;-6.62;74.18;102219.45;109467;1263;21999;-81
2022/01/11 04:38:32;;;;;;;143.70;89.70;;;;;;;-6.61;74.21;102216.53;109462;1264;21983;-79
2022/01/11 04:41:08;;;;;;;141.20;87.20;;;;;;;-6.58;74.42;102218.39;110039;1264;23641;-83
2022/01/11 04:43:45;;;;;;;138.90;85.20;;;;;;;-6.56;74.38;102214.96;110091;1260;23211;-83
2022/01/11 04:46:18;;;;;;;140.40;86.50;;;;;;;-6.55;74.43;102217.52;110544;1259;23065;-83
2022/01/11 04:48:51;;;;;;;137.70;84.60;;;;;;;-6.54;74.56;102216.14;110430;1254;23729;-80
2022/01/11 04:51:21;;;;;;;139.70;86.00;;;;;;;-6.52;74.46;102222.81;109974;1258;22260;-82
2022/01/11 04:53:52;;;;;;;141.60;85.80;;;;;;;-6.51;74.52;102221.27;110380;1257;22177;-83
2022/01/11 04:56:28;;;;;;;142.70;89.30;;;;;;;-6.50;74.44;102217.65;110471;1257;21988;-85
2022/01/11 04:58:58;;;;;;;150.10;85.00;;;;;;;-6.51;74.41;102215.42;110407;1257;22153;-84
2022/01/11 05:01:31;;;;;;;148.40;87.70;;;;;;;-6.49;74.52;102212.85;109470;1263;21982;-84
2022/01/11 05:04:01;;;;;;;147.10;90.20;;;;;;;-6.47;74.57;102217.13;109498;1264;23675;-83
2022/01/11 05:06:34;;;;;;;146.80;90.60;;;;;;;-6.47;74.49;102224.30;109654;1263;21987;-85
2022/01/11 05:09:06;;;;;;;144.60;91.40;;;;;;;-6.46;74.54;102224.47;109917;1260;21979;-85
2022/01/11 05:11:37;;;;;;;150.60;94.00;;;;;;;-6.45;74.64;102228.23;110551;1260;22012;-83
2022/01/11 05:14:34;;;;;;;156.40;95.80;;;;;;;-6.45;74.52;102233.19;110063;1264;21999;-86
2022/01/11 05:17:26;;;;;;;153.40;91.30;;;;;;;-6.46;74.48;102234.08;110372;1263;22087;-84
2022/01/11 05:19:55;;;;;;;147.70;92.60;;;;;;;-6.47;74.59;102241.80;110126;1260;22044;-84
2022/01/11 05:22:25;;;;;;;153.00;94.00;;;;;;;-6.45;74.61;102241.42;109697;1263;21976;-82
2022/01/11 05:25:00;;;;;;;156.50;97.70;;;;;;;-6.43;74.53;102243.82;109717;1263;22989;-84
2022/01/11 05:27:30;;;;;;;161.50;96.10;;;;;;;-6.44;74.32;102245.70;109302;1270;22425;-82
2022/01/11 05:30:04;;;;;;;163.90;99.00;;;;;;;-6.46;74.31;102249.67;109388;1270;21961;-83
2022/01/11 05:32:35;;;;;;;160.30;100.20;;;;;;;-6.50;74.31;102257.60;109468;1264;21993;-81
2022/01/11 05:35:12;;;;;;;162.40;97.80;;;;;;;-6.54;74.37;102260.70;109836;1265;23919;-82
2022/01/11 05:37:42;;;;;;;176.80;102.00;;;;;;;-6.58;74.44;102263.65;109367;1270;22202;-79
2022/01/11 05:40:15;;;;;;;186.50;105.60;;;;;;;-6.65;74.41;102264.39;109273;1263;22780;-80
2022/01/11 05:42:49;;;;;;;188.10;104.20;;;;;;;-6.69;74.38;102265.10;109532;1266;23738;-81
2022/01/11 05:45:26;;;;;;;177.80;102.70;;;;;;;-6.71;74.49;102271.45;109360;1263;23622;-80
2022/01/11 05:47:57;;;;;;;174.60;103.50;;;;;;;-6.71;74.58;102274.20;109550;1264;22003;-80
2022/01/11 05:50:31;;;;;;;177.80;101.60;;;;;;;-6.71;74.63;102272.83;109400;1270;22145;-81
2022/01/11 05:53:00;;;;;;;175.70;102.40;;;;;;;-6.71;74.52;102274.20;109325;1270;22018;-81
2022/01/11 05:55:33;;;;;;;177.40;103.30;;;;;;;-6.71;74.51;102281.56;109090;1270;21957;-79
2022/01/11 05:58:03;;;;;;;169.30;100.80;;;;;;;-6.73;74.40;102277.29;109111;1270;22189;-83
2022/01/11 06:00:33;;;;;;;169.50;101.10;;;;;;;-6.74;74.35;102277.81;109125;1269;22256;-80
2022/01/11 06:03:03;;;;;;;161.60;98.20;;;;;;;-6.76;74.39;102281.60;108998;1264;22009;-80
2022/01/11 06:05:39;;;;;;;157.30;98.90;;;;;;;-6.78;74.33;102285.21;109898;1263;23839;-81
2022/01/11 06:08:16;;;;;;;171.60;101.70;;;;;;;-6.81;74.22;102289.34;109987;1259;23147;-80
2022/01/11 06:10:48;;;;;;;174.50;102.50;;;;;;;-6.83;74.21;102288.51;110389;1259;22053;-80
2022/01/11 06:13:19;;;;;;;;;;;;;;;-6.86;74.18;102285.27;110218;1254;23833;-80
2022/01/11 06:15:51;;;;;;;181.20;98.20;;;;;;;-6.95;74.19;102286.86;110853;1254;21977;-81
2022/01/11 06:18:22;;;;;;;;;;;;;;;-7.01;74.31;102287.92;110036;1260;21971;-81
2022/01/11 06:21:04;;;;;;;179.30;98.80;;;;;;;-7.11;74.32;102289.17;110327;1259;22009;-81
2022/01/11 06:23:33;;;;;;;190.70;106.80;;;;;;;-7.16;74.36;102295.02;110191;1259;22292;-81
2022/01/11 06:26:02;;;;;;;190.70;107.90;;;;;;;-7.18;74.54;102301.02;110276;1259;23059;-81
2022/01/11 06:28:32;;;;;;;199.60;109.00;;;;;;;-7.20;74.66;102305.81;110325;1260;22094;-80
2022/01/11 06:31:02;;;;;;;193.10;112.50;;;;;;;-7.21;74.61;102305.48;109628;1263;22849;-81
2022/01/11 06:33:32;;;;;;;188.00;111.50;;;;;;;-7.22;74.56;102310.79;109269;1266;22062;-82
2022/01/11 06:36:10;;;;;;;198.00;113.00;;;;;;;-7.23;74.47;102315.08;109277;1263;22001;-80
2022/01/11 06:38:43;;;;;;;205.10;113.30;;;;;;;-7.23;74.34;102320.90;109270;1267;22009;-81
2022/01/11 06:41:13;;;;;;;206.70;117.30;;;;;;;-7.24;74.42;102324.84;109225;1267;22070;-81
2022/01/11 06:43:43;;;;;;;195.40;112.20;;;;;;;-7.24;74.31;102332.88;109245;1267;21988;-81
2022/01/11 06:46:14;;;;;;;203.40;119.30;;;;;;;-7.24;74.28;102333.40;109467;1267;21990;-80
2022/01/11 06:48:45;;;;;;;214.70;120.60;;;;;;;-7.23;74.22;102337.51;109543;1262;22012;-82
2022/01/11 06:51:14;;;;;;;197.30;113.70;;;;;;;-7.24;74.17;102337.50;109668;1259;22052;-79
2022/01/11 06:53:47;;;;;;;210.80;120.90;;;;;;;-7.24;74.28;102335.45;110215;1257;23031;-80
2022/01/11 06:56:17;;;;;;;199.90;116.30;;;;;;;-7.23;74.31;102334.77;110711;1253;24123;-81
2022/01/11 06:58:50;;;;;;;196.40;116.20;;;;;;;-7.22;74.22;102338.86;110903;1253;22058;-81
2022/01/11 07:01:20;;;;;;;196.20;112.80;;;;;;;-7.21;74.27;102338.18;110167;1257;21986;-81
2022/01/11 07:03:51;;;;;;;195.00;115.50;;;;;;;-7.19;74.27;102341.77;110309;1258;23539;-81
2022/01/11 07:06:26;;;;;;;206.20;117.40;;;;;;;-7.19;74.21;102341.59;110335;1257;23130;-82
2022/01/11 07:08:56;;;;;;;196.70;114.60;;;;;;;-7.18;74.25;102344.50;110486;1257;23097;-81
2022/01/11 07:11:29;;;;;;;206.60;114.60;;;;;;;-7.16;74.30;102348.95;110602;1257;21978;-79
2022/01/11 07:14:03;;;;;;;174.70;103.90;;;;;;;-7.14;74.42;102348.08;109617;1263;22141;-81
2022/01/11 07:16:32;;;;;;;191.90;113.60;;;;;;;-7.11;74.37;102346.70;109806;1263;22016;-80
2022/01/11 07:19:02;;;;;;;213.60;122.80;;;;;;;-7.08;74.39;102344.80;108937;1268;23596;-80
2022/01/11 07:21:34;;;;;;;200.20;119.10;;;;;;;-7.05;74.38;102345.65;108511;1276;22000;-80
2022/01/11 07:24:07;;;;;;;193.20;110.40;;;;;;;-7.01;74.55;102352.83;108627;1276;22191;-80
2022/01/11 07:26:36;;;;;;;189.50;107.70;;;;;;;-6.97;74.62;102356.91;108715;1273;21988;-80
2022/01/11 07:29:07;;;;;;;185.50;106.60;;;;;;;-6.93;74.58;102357.92;108865;1271;23058;-80
2022/01/11 07:31:38;;;;;;;195.80;111.00;;;;;;;-6.89;74.65;102357.40;109080;1268;22011;-80
2022/01/11 07:34:09;;;;;;;186.10;110.80;;;;;;;-6.84;74.73;102359.94;109067;1270;22282;-80
2022/01/11 07:36:42;;;;;;;195.10;110.00;;;;;;;-6.81;74.67;102364.38;109327;1263;21979;-85
2022/01/11 07:39:13;;;;;;;;;;;;;;;-6.80;74.41;102363.70;110093;1259;22042;-82
2022/01/11 07:41:43;;;;;;;181.90;100.30;;;;;;;-6.84;74.62;102359.94;110189;1254;23671;-83
2022/01/11 07:44:31;;;;;;;180.00;102.70;;;;;;;-6.81;74.83;102355.13;110945;1253;22231;-82
2022/01/11 07:47:03;;;;;;;188.90;115.50;;;;;;;-6.73;75.03;102352.86;110997;1253;22057;-82
2022/01/11 07:49:39;;;;;;;183.90;113.20;;;;;;;-6.66;75.01;102349.23;111104;1253;21988;-82
2022/01/11 07:52:09;;;;;;;174.60;109.70;;;;;;;-6.59;75.09;102347.98;110331;1257;22984;-81
2022/01/11 07:54:40;;;;;;;188.70;114.00;;;;;;;-6.52;75.04;102345.87;110258;1256;22056;-80
2022/01/11 07:57:11;;;;;;;187.10;115.50;;;;;;;-6.45;75.00;102347.72;110456;1257;22027;-80
2022/01/11 07:59:41;;;;;;;187.70;116.60;;;;;;;-6.38;75.17;102348.86;109318;1264;23057;-80
2022/01/11 08:02:33;;;;;;;202.60;124.20;;;;;;;-6.31;75.11;102350.52;109644;1263;21991;-80
2022/01/11 08:05:06;;;;;;;192.10;120.80;;;;;;;-6.26;75.05;102351.86;109364;1264;23055;-81
2022/01/11 08:07:39;;;;;;;180.90;111.90;;;;;;;-6.21;74.93;102353.89;109372;1263;23046;-81
2022/01/11 08:10:20;;;;;;;185.20;116.10;;;;;;;-6.17;74.94;102351.80;109610;1260;22330;-80
2022/01/11 08:12:53;;;;;;;194.90;119.40;;;;;;;-6.10;75.12;102351.06;110020;1260;21997;-81
2022/01/11 08:15:23;;;;;;;177.40;115.60;;;;;;;-6.03;75.19;102353.07;110292;1260;23618;-80
2022/01/11 08:17:53;;;;;;;178.80;114.10;;;;;;;-5.98;75.08;102360.05;110421;1254;23603;-81
2022/01/11 08:20:23;;;;;;;179.00;112.00;;;;;;;-5.91;75.23;102363.56;110031;1257;23037;-80
2022/01/11 08:22:55;;;;;;;178.60;110.40;;;;;;;-5.82;75.40;102365.02;110030;1256;21970;-81
2022/01/11 08:25:29;;;;;;;183.90;117.00;;;;;;;-5.77;75.21;102365.34;109457;1262;22115;-80
2022/01/11 08:28:01;;;;;;;178.00;113.20;;;;;;;-5.71;75.33;102368.36;109492;1262;22015;-80
2022/01/11 08:30:34;;;;;;;189.50;113.50;;;;;;;-5.65;75.19;102368.46;109672;1262;21985;-79
2022/01/11 08:33:09;;;;;;;180.30;112.40;;;;;;;-5.60;75.15;102370.31;109506;1262;22316;-81
2022/01/11 08:35:39;;;;;;;187.70;119.10;;;;;;;-5.54;75.20;102373.00;109574;1262;207597;-82
2022/01/11 08:38:10;;;;;;;179.60;112.70;;;;;;;-5.48;75.23;102373.62;109926;1256;22979;-81
2022/01/11 08:40:40;;;;;;;187.20;112.90;;;;;;;-5.44;75.09;102372.55;109964;1262;21973;-82
2022/01/11 08:43:14;;;;;;;180.60;113.80;;;;;;;-5.39;75.17;102374.38;110151;1256;22053;-81
2022/01/11 08:45:44;;;;;;;195.80;116.10;;;;;;;-5.30;75.32;102380.30;110480;1256;23517;-81
2022/01/11 08:48:15;;;;;;;194.20;118.30;;;;;;;-5.22;75.36;102382.95;110531;1256;22152;-82
2022/01/11 08:51:05;;;;;;;182.50;116.60;;;;;;;-5.16;75.30;102384.78;109904;1260;21978;-81
2022/01/11 08:53:35;;;;;;;179.90;116.40;;;;;;;-5.12;75.20;102387.48;109961;1260;21995;-81
2022/01/11 08:56:15;;;;;;;189.00;119.20;;;;;;;-5.08;75.16;102392.77;109157;1267;22055;-80
2022/01/11 08:58:46;;;;;;;184.80;118.60;;;;;;;-5.00;75.31;102399.21;109572;1261;22007;-80
2022/01/11 09:01:23;;;;;;;190.80;124.80;;;;;;;-4.89;75.58;102400.96;109944;1262;22777;-80
2022/01/11 09:03:54;;;;;;;193.90;126.60;;;;;;;-4.80;75.42;102398.44;109586;1262;22380;-80
2022/01/11 09:06:25;;;;;;;191.10;125.60;;;;;;;-4.71;75.46;102406.07;109824;1262;24596;-80
2022/01/11 09:09:15;;;;;;;199.20;126.20;;;;;;;-4.64;75.33;102401.67;110050;1259;22056;-81
2022/01/11 09:11:46;;;;;;;209.30;128.20;;;;;;;-4.56;75.31;102403.28;110321;1256;23781;-81
2022/01/11 09:14:19;;;;;;;201.10;123.40;;;;;;;-4.47;75.29;102406.78;110637;1253;22756;-81
2022/01/11 09:16:56;;;;;;;198.40;126.60;;;;;;;-4.40;75.19;102409.09;111028;1253;23150;-80
2022/01/11 09:19:32;;;;;;;198.50;125.60;;;;;;;-4.33;75.18;102412.08;110849;1253;24165;-80
2022/01/11 09:22:04;;;;;;;194.70;124.50;;;;;;;-4.24;75.24;102412.14;110006;1260;21980;-80
2022/01/11 09:24:42;;;;;;;193.60;126.70;;;;;;;-4.14;75.30;102408.54;109545;1263;21994;-81
2022/01/11 09:27:23;;;;;;;203.00;133.10;;;;;;;-4.02;75.60;102409.90;109439;1263;22754;-81
2022/01/11 09:30:13;;;;;;;204.50;132.10;;;;;;;-3.90;75.53;102410.22;109072;1270;23101;-81
2022/01/11 09:32:46;;;;;;;191.20;128.10;;;;;;;-3.78;75.53;102409.70;108700;1276;23733;-81
2022/01/11 09:35:17;;;;;;;212.60;138.40;;;;;;;-3.67;75.43;102409.50;108668;1277;22004;-81
2022/01/11 09:37:51;;;;;;;224.10;141.30;;;;;;;-3.52;75.63;102408.55;108675;1277;24390;-81
2022/01/11 09:40:23;;;;;;;221.40;137.40;;;;;;;-3.34;75.86;102410.13;108492;1276;22025;-82
2022/01/11 09:43:23;;;;;;;210.50;134.80;;;;;;;-3.13;75.94;102410.94;108773;1272;23809;-80
2022/01/11 09:45:57;;;;;;;234.60;142.80;;;;;;;-3.00;75.53;102411.03;108742;1273;24065;-81
2022/01/11 09:48:35;;;;;;;229.40;138.60;;;;;;;-2.89;75.14;102415.30;108757;1273;23773;-81
2022/01/11 09:51:05;;;;;;;223.80;139.70;;;;;;;-2.80;75.14;102410.45;109383;1264;22055;-81
2022/01/11 09:53:42;;;;;;;255.40;168.80;;;;;;;-2.68;75.09;102414.70;109438;1264;22177;-78
2022/01/11 09:56:21;;;;;;;227.00;150.80;;;;;;;-2.56;75.02;102412.89;109034;1270;21997;-80
2022/01/11 09:58:55;;;;;;;285.60;188.60;;;;;;;-2.51;74.53;102416.73;108855;1273;23623;-79
2022/01/11 10:01:49;;;;;;;191.30;130.10;;;;;;;-2.51;74.21;102420.89;109188;1270;23709;-80
2022/01/11 10:04:40;;;;;;;196.40;131.40;;;;;;;-2.54;73.95;102422.83;109039;1270;23052;-80
2022/01/11 10:07:42;;;;;;;203.80;129.90;;;;;;;-2.49;74.11;102428.42;109178;1267;22001;-80
2022/01/11 10:10:27;;;;;;;185.30;128.00;;;;;;;-2.42;73.96;102430.35;109305;1267;21971;-81
2022/01/11 10:13:03;;;;;;;179.50;120.60;;;;;;;-2.30;74.12;102429.58;109325;1267;21993;-80
2022/01/11 10:15:39;;;;;;;171.10;116.00;;;;;;;-2.22;73.92;102429.56;109867;1261;22062;-79
2022/01/11 10:18:38;;;;;;;165.60;111.90;;;;;;;-2.15;73.56;102438.71;110662;1253;24324;-80
2022/01/11 10:21:39;;;;;;;167.60;114.50;;;;;;;-2.13;73.16;102435.40;110549;1253;21977;-81
2022/01/11 10:24:35;;;;;;;164.90;111.60;;;;;;;-2.06;73.28;102436.29;110398;1257;22745;-80
2022/01/11 10:27:25;;;;;;;174.70;115.10;;;;;;;-1.98;73.21;102436.25;109892;1262;22932;-81
2022/01/11 10:30:17;;;;;;;179.00;124.70;;;;;;;-1.89;73.26;102433.98;109735;1262;23400;-81
2022/01/11 10:33:01;;;;;;;195.90;134.00;;;;;;;-1.79;73.29;102432.17;109257;1270;21981;-80
2022/01/11 10:35:42;;;;;;;204.70;144.20;;;;;;;-1.73;72.83;102435.32;109175;1270;22043;-80
2022/01/11 10:38:47;;;;;;;204.50;147.50;;;;;;;-1.73;72.67;102439.82;109247;1270;23644;-83
2022/01/11 10:42:03;;;;;;;215.10;152.80;;;;;;;-1.63;73.09;102442.33;109287;1267;22266;-81
2022/01/11 10:45:35;;;;;;;;;;;;;;;;;;;;;
2022/01/11 10:48:31;;;;;;;186.60;134.00;;;;;;;-1.39;73.01;102452.44;109929;1260;23803;-80
2022/01/11 10:55:05;;;;;;;188.60;127.90;;;;;;;-1.16;72.94;102445.76;110531;1259;22030;-81
2022/01/11 10:58:28;;;;;;;;;;;;;;;;;;;;;
2022/01/11 11:03:14;;;;;;;;;;;;;;;;;;;;;
2022/01/11 11:06:26;;;;;;;166.80;113.60;;;;;;;-0.84;71.56;102439.88;109605;1267;22048;-81
2022/01/11 11:09:27;;;;;;;;;;;;;;;;;;;;;
2022/01/11 11:13:01;;;;;;;;;;;;;;;;;;;;;
2022/01/11 11:16:22;;;;;;;;;;;;;;;;;;;;;
2022/01/11 11:19:15;;;;;;;174.90;122.10;;;;;;;-0.77;70.79;102440.55;108509;1283;22027;-80
2022/01/11 11:22:45;;;;;;;160.30;119.20;;;;;;;-0.61;70.93;102439.39;107719;1289;544463;-80
2022/01/11 11:25:18;;;;;;;166.70;117.90;;;;;;;-0.58;70.70;102432.55;109142;1270;22101;-80
2022/01/11 11:27:55;;;;;;;150.40;112.80;;;;;;;-0.57;70.65;102435.12;108927;1275;22186;-80
2022/01/11 11:30:30;;;;;;;146.70;108.10;;;;;;;-0.55;70.67;102435.24;109632;1259;21978;-81
2022/01/11 11:33:18;;;;;;;147.80;106.50;;;;;;;-0.54;70.78;102434.00;109626;1267;22004;-80
2022/01/11 11:36:17;;;;;;;138.80;103.00;;;;;;;-0.54;70.53;102432.06;107778;1263;2845402;-80
2022/01/11 11:39:20;;;;;;;145.20;106.90;;;;;;;-0.55;70.32;102431.43;109270;1267;23792;-80
2022/01/11 11:42:18;;;;;;;140.10;100.80;;;;;;;-0.54;70.39;102430.01;109199;1269;21985;-80
2022/01/11 11:44:59;;;;;;;130.90;95.30;;;;;;;-0.54;70.14;102425.33;109564;1264;21985;-79
2022/01/11 11:48:11;;;;;;;134.40;97.70;;;;;;;-0.65;69.55;102423.39;109024;1269;22021;-80
2022/01/11 11:50:58;;;;;;;149.30;102.10;;;;;;;-0.71;69.70;102424.45;109017;1270;22090;-80
2022/01/11 11:53:58;;;;;;;139.60;100.10;;;;;;;-0.74;69.79;102423.34;108989;1273;23109;-79